createdAt,value
2023-05-05T00:00:14.943Z,9.365808
2023-05-05T00:01:14.890Z,9.365911
2023-05-05T00:02:14.680Z,9.365908
2023-05-05T00:03:14.595Z,9.365965
2023-05-05T00:04:15.017Z,9.365996
2023-05-05T00:05:14.623Z,9.365979
2023-05-05T00:06:14.570Z,9.366328
2023-05-05T00:07:15.346Z,9.366048
2023-05-05T00:08:14.189Z,9.366275
2023-05-05T00:09:14.637Z,9.366019
2023-05-05T00:10:14.250Z,9.366055
2023-05-05T00:11:14.301Z,9.366018
2023-05-05T00:12:14.096Z,9.365958
2023-05-05T00:13:14.435Z,9.365954
2023-05-05T00:14:14.839Z,9.365928
2023-05-05T00:15:15.779Z,9.365964
2023-05-05T00:16:14.653Z,9.365974
2023-05-05T00:17:14.669Z,9.365985
2023-05-05T00:18:14.499Z,9.366042
2023-05-05T00:19:14.164Z,9.366045
2023-05-05T00:20:14.518Z,9.366080
2023-05-05T00:21:14.318Z,9.365989
2023-05-05T00:22:15.170Z,9.365982
2023-05-05T00:23:14.598Z,9.366009
2023-05-05T00:24:14.530Z,9.365995
2023-05-05T00:25:17.068Z,9.366015
2023-05-05T00:26:14.200Z,9.366045
2023-05-05T00:27:14.050Z,9.366014
2023-05-05T00:28:14.848Z,9.366106
2023-05-05T00:29:13.984Z,9.365953
2023-05-05T01:50:46.181Z,9.366052
2023-05-05T01:51:44.917Z,9.365984
2023-05-05T01:52:45.030Z,9.365996
2023-05-05T01:53:45.028Z,9.365970
2023-05-05T01:54:44.876Z,9.366016
2023-05-05T01:55:44.806Z,9.366041
2023-05-05T01:56:44.851Z,9.365967
2023-05-05T01:57:45.582Z,9.366021
2023-05-05T01:58:45.039Z,9.366108
2023-05-05T01:59:44.938Z,9.366039
2023-05-05T02:00:44.823Z,9.366025
2023-05-05T02:01:44.940Z,9.365997
2023-05-05T02:02:45.003Z,9.366034
2023-05-05T02:03:44.961Z,9.366000
2023-05-05T02:04:45.045Z,9.365974
2023-05-05T02:05:44.693Z,9.365974
2023-05-05T02:06:44.719Z,9.366005
2023-05-05T02:07:44.690Z,9.365994
2023-05-05T02:08:44.657Z,9.365990
2023-05-05T02:09:44.705Z,9.366013
2023-05-05T02:10:44.698Z,9.366062
2023-05-05T02:11:44.763Z,9.365970
2023-05-05T02:12:44.792Z,9.365986
2023-05-05T02:13:44.717Z,9.365991
2023-05-05T02:14:44.873Z,9.366318
2023-05-05T02:15:44.527Z,9.366209
2023-05-05T02:16:44.895Z,9.366087
2023-05-05T02:17:44.832Z,9.366341
2023-05-05T02:18:44.579Z,9.366214
2023-05-05T02:19:44.597Z,9.366118
2023-05-05T02:20:44.461Z,9.366285
2023-05-05T02:21:44.447Z,9.366119
2023-05-05T02:23:07.008Z,9.366016
2023-05-05T02:23:45.378Z,9.366263
2023-05-05T02:24:44.646Z,9.365988
2023-05-05T02:25:44.379Z,9.366090
2023-05-05T02:26:44.357Z,9.365926
2023-05-05T02:27:44.314Z,9.365930
2023-05-05T02:28:44.267Z,9.365926
2023-05-05T02:29:44.315Z,9.365956
2023-05-05T02:30:44.377Z,9.365824
2023-05-05T02:31:44.348Z,9.366097
2023-05-05T02:32:44.251Z,9.366131
2023-05-05T02:33:44.254Z,9.365948
2023-05-05T02:34:44.263Z,9.365932
2023-05-05T02:35:44.136Z,9.366216
2023-05-05T02:36:44.171Z,9.366075
2023-05-05T02:37:44.158Z,9.365893
2023-05-05T02:38:44.209Z,9.365965
2023-05-05T02:39:44.122Z,9.365889
2023-05-05T02:40:44.189Z,9.366110
2023-05-05T02:41:44.148Z,9.366063
2023-05-05T02:42:44.110Z,9.365647
2023-05-05T02:43:45.032Z,9.365706
2023-05-05T02:44:44.021Z,9.365828
2023-05-05T02:45:44.080Z,9.366117
2023-05-05T02:46:44.076Z,9.366218
2023-05-05T02:47:44.045Z,9.366029
2023-05-05T02:48:43.996Z,9.365961
2023-05-05T04:43:25.706Z,9.365861
2023-05-05T04:44:25.911Z,9.365940
2023-05-05T04:45:25.851Z,9.365960
2023-05-05T04:46:25.920Z,9.365969
2023-05-05T04:47:25.712Z,9.365994
2023-05-05T04:48:25.617Z,9.365960
2023-05-05T04:49:25.708Z,9.365988
2023-05-05T04:50:25.652Z,9.365950
2023-05-05T04:51:25.818Z,9.365893
2023-05-05T04:52:25.692Z,9.365886
2023-05-05T04:53:25.674Z,9.365931
2023-05-05T04:54:25.671Z,9.365991
2023-05-05T04:55:25.640Z,9.366040
2023-05-05T04:56:25.590Z,9.365973
2023-05-05T04:57:25.831Z,9.365980
2023-05-05T04:58:25.601Z,9.366281
2023-05-05T04:59:25.356Z,9.366122
2023-05-05T05:00:26.089Z,9.365921
2023-05-05T05:01:25.416Z,9.365945
2023-05-05T05:02:25.445Z,9.365875
2023-05-05T05:03:25.386Z,9.366049
2023-05-05T05:04:25.275Z,9.366010
2023-05-05T05:05:25.292Z,9.366007
2023-05-05T05:06:25.283Z,9.365922
2023-05-05T05:07:25.215Z,9.365738
2023-05-05T05:08:25.167Z,9.365788
2023-05-05T05:09:25.179Z,9.365953
2023-05-05T05:10:25.223Z,9.365956
2023-05-05T05:11:25.317Z,9.366031
2023-05-05T05:12:25.241Z,9.365975
2023-05-05T05:13:25.417Z,9.365921
2023-05-05T05:14:25.303Z,9.366032
2023-05-05T05:15:25.153Z,9.366018
2023-05-05T05:16:25.234Z,9.366042
2023-05-05T05:17:25.162Z,9.365960
2023-05-05T05:18:25.174Z,9.365915
2023-05-05T05:19:25.150Z,9.365922
2023-05-05T05:20:25.203Z,9.366227
2023-05-05T05:21:25.222Z,9.365837
2023-05-05T05:22:25.181Z,9.365850
2023-05-05T05:23:25.116Z,9.365827
2023-05-05T05:24:25.128Z,9.365703
2023-05-05T05:25:25.049Z,9.365727
2023-05-05T05:26:25.097Z,9.365561
2023-05-05T05:27:25.092Z,9.365725
2023-05-05T05:28:25.151Z,9.365592
2023-05-05T05:29:25.064Z,9.365670
2023-05-05T05:30:25.025Z,9.365527
2023-05-05T05:31:25.092Z,9.365564
2023-05-05T05:32:24.996Z,9.365564
2023-05-05T05:33:25.242Z,9.365564
2023-05-05T05:34:25.247Z,9.365564
2023-05-05T05:35:25.232Z,9.365564
2023-05-05T05:36:25.320Z,9.365564
2023-05-05T05:37:25.247Z,9.365894
2023-05-05T05:38:25.231Z,9.366071
2023-05-05T05:39:25.140Z,9.365984
2023-05-05T06:46:25.313Z,9.366054
2023-05-05T06:47:25.316Z,9.365980
2023-05-05T06:48:25.305Z,9.366056
2023-05-05T06:49:25.237Z,9.366369
2023-05-05T06:50:25.248Z,9.366356
2023-05-05T06:51:25.288Z,9.366356
2023-05-05T06:52:25.208Z,9.366830
2023-05-05T06:53:25.204Z,9.367013
2023-05-05T06:54:25.214Z,9.367001
2023-05-05T06:55:25.184Z,9.367056
2023-05-05T06:56:25.321Z,9.367056
2023-05-05T06:57:25.156Z,9.367056
2023-05-05T06:58:25.231Z,9.367056
2023-05-05T06:59:25.190Z,9.367056
2023-05-05T07:00:25.125Z,9.367056
2023-05-05T07:01:25.199Z,9.367056
2023-05-05T07:02:26.843Z,9.367056
2023-05-05T07:03:26.117Z,9.367056
2023-05-05T07:04:25.122Z,9.367056
2023-05-05T07:05:25.077Z,9.367056
2023-05-05T07:06:25.047Z,9.367056
2023-05-05T07:07:25.062Z,9.367056
2023-05-05T07:08:25.041Z,9.367056
2023-05-05T07:09:25.020Z,9.367056
2023-05-05T07:10:25.058Z,9.366965
2023-05-05T07:11:24.997Z,9.365952
2023-05-05T07:12:24.984Z,9.366220
2023-05-05T07:13:25.133Z,9.366110
2023-05-05T07:14:24.962Z,9.366095
2023-05-05T07:15:28.774Z,9.366083
2023-05-05T07:16:25.970Z,9.366059
2023-05-05T07:17:24.952Z,9.366070
2023-05-05T07:18:24.923Z,9.366000
2023-05-05T07:19:24.908Z,9.366024
2023-05-05T07:20:24.884Z,9.366059
2023-05-05T07:21:24.904Z,9.366011
2023-05-05T07:22:24.858Z,9.366052
2023-05-05T07:23:24.977Z,9.366059
2023-05-05T07:24:24.837Z,9.366054
2023-05-05T07:25:24.812Z,9.366071
2023-05-05T07:26:24.861Z,9.366069
2023-05-05T07:27:24.793Z,9.365950
2023-05-05T07:28:24.891Z,9.366005
2023-05-05T07:29:24.900Z,9.365994
2023-05-05T07:30:25.102Z,9.366020
2023-05-05T07:31:24.838Z,9.366011
2023-05-05T07:32:24.771Z,9.366018
2023-05-05T07:33:24.719Z,9.365943
2023-05-05T07:34:24.728Z,9.366046
2023-05-05T07:35:24.692Z,9.366063
2023-05-05T07:36:24.687Z,9.365862
2023-05-05T07:37:24.724Z,9.366116
2023-05-05T07:38:24.685Z,9.366141
2023-05-05T07:39:24.713Z,9.366042
2023-05-05T07:40:24.643Z,9.366018
2023-05-05T07:41:24.628Z,9.365912
2023-05-05T07:42:24.665Z,9.365928
2023-05-05T07:43:24.585Z,9.366023
2023-05-05T07:44:24.577Z,9.366007
2023-05-05T07:45:24.592Z,9.365958
2023-05-05T07:46:24.564Z,9.365904
2023-05-05T07:47:24.558Z,9.365896
2023-05-05T07:48:24.562Z,9.366006
2023-05-05T07:49:24.520Z,9.366190
2023-05-05T07:50:24.525Z,9.366117
2023-05-05T07:51:24.488Z,9.365987
2023-05-05T07:52:36.999Z,9.366056
2023-05-05T07:53:24.945Z,9.366071
2023-05-05T07:54:24.469Z,9.366278
2023-05-05T07:55:24.507Z,9.366037
2023-05-05T07:56:24.427Z,9.366006
2023-05-05T07:57:24.441Z,9.366069
2023-05-05T07:58:24.411Z,9.365952
2023-05-05T07:59:24.411Z,9.365917
2023-05-05T08:00:24.389Z,9.365950
2023-05-05T08:01:24.386Z,9.365912
2023-05-05T08:02:24.786Z,9.365992
2023-05-05T08:03:24.991Z,9.365993
2023-05-05T08:04:24.385Z,9.365968
2023-05-05T08:05:24.338Z,9.365962
2023-05-05T08:06:24.313Z,9.365817
2023-05-05T08:07:24.310Z,9.366012
2023-05-05T08:08:24.322Z,9.366046
2023-05-05T08:09:24.285Z,9.365994
2023-05-05T08:10:24.328Z,9.366192
2023-05-05T08:11:24.318Z,9.365975
2023-05-05T08:12:24.244Z,9.365971
2023-05-05T08:13:24.236Z,9.365924
2023-05-05T08:14:24.261Z,9.365812
2023-05-05T08:15:24.201Z,9.365859
2023-05-05T08:16:24.411Z,9.365982
2023-05-05T08:17:24.186Z,9.365932
2023-05-05T08:18:24.166Z,9.366012
2023-05-05T08:19:29.192Z,9.365961
2023-05-05T08:20:24.156Z,9.366014
2023-05-05T08:21:24.148Z,9.366051
2023-05-05T08:22:24.125Z,9.366397
2023-05-05T08:23:24.112Z,9.365973
2023-05-05T08:24:24.108Z,9.365979
2023-05-05T08:25:24.114Z,9.366005
2023-05-05T08:26:24.073Z,9.365998
2023-05-05T08:27:24.140Z,9.366064
2023-05-05T08:28:24.063Z,9.366148
2023-05-05T08:29:24.047Z,9.366186
2023-05-05T08:30:24.109Z,9.366124
2023-05-05T08:31:24.211Z,9.366136
2023-05-05T08:32:27.858Z,9.366091
2023-05-05T08:33:24.133Z,9.365993
2023-05-05T08:34:24.503Z,9.366082
2023-05-05T08:35:24.500Z,9.365988
2023-05-05T08:36:23.977Z,9.365970
2023-05-05T08:37:24.332Z,9.365977
2023-05-05T08:38:23.944Z,9.366001
2023-05-05T08:39:26.119Z,9.365935
2023-05-05T08:40:23.965Z,9.366109
2023-05-05T08:41:23.900Z,9.366171
2023-05-05T08:42:36.265Z,9.366056
2023-05-05T08:43:24.566Z,9.366210
2023-05-05T08:44:23.874Z,9.366244
2023-05-05T08:45:23.868Z,9.365992
2023-05-05T08:46:25.386Z,9.366017
2023-05-05T08:47:23.911Z,9.366012
2023-05-05T08:48:24.606Z,9.365972
2023-05-05T08:49:23.792Z,9.365989
2023-05-05T08:50:23.919Z,9.365952
2023-05-05T08:51:23.822Z,9.365999
2023-05-05T08:52:23.810Z,9.365953
2023-05-05T08:53:23.746Z,9.365959
2023-05-05T08:54:24.569Z,9.366003
2023-05-05T08:55:24.223Z,9.366001
2023-05-05T08:56:24.184Z,9.365984
2023-05-05T08:57:24.696Z,9.365951
2023-05-05T08:58:23.861Z,9.365926
2023-05-05T08:59:24.173Z,9.366063
2023-05-05T09:00:24.195Z,9.365993
2023-05-05T09:01:24.800Z,9.366003
2023-05-05T09:02:27.313Z,9.366064
2023-05-05T09:03:24.135Z,9.365997
2023-05-05T09:04:23.778Z,9.366060
2023-05-05T09:05:24.299Z,9.366105
2023-05-05T09:06:23.769Z,9.366093
2023-05-05T09:07:23.750Z,9.366136
2023-05-05T09:08:23.718Z,9.366118
2023-05-05T09:09:27.494Z,9.366108
2023-05-05T09:10:23.569Z,9.366137
2023-05-05T09:11:23.627Z,9.366190
2023-05-05T09:12:23.555Z,9.366082
2023-05-05T09:13:27.574Z,9.366098
2023-05-05T09:14:24.535Z,9.366071
2023-05-05T09:15:23.599Z,9.366023
2023-05-05T09:16:23.526Z,9.366072
2023-05-05T09:17:26.015Z,9.366024
2023-05-05T09:18:27.039Z,9.366016
2023-05-05T09:19:25.215Z,9.365995
2023-05-05T09:20:26.432Z,9.366011
2023-05-05T09:21:24.090Z,9.366016
2023-05-05T09:22:25.377Z,9.366003
2023-05-05T09:23:24.778Z,9.366035
2023-05-05T09:24:24.285Z,9.366020
2023-05-05T09:25:23.854Z,9.366028
2023-05-05T09:26:24.317Z,9.366074
2023-05-05T09:27:23.838Z,9.366092
2023-05-05T09:28:23.397Z,9.366021
2023-05-05T09:29:23.696Z,9.366106
2023-05-05T09:30:24.132Z,9.366032
2023-05-05T09:31:26.997Z,9.365936
2023-05-05T09:32:23.474Z,9.366011
2023-05-05T09:33:23.327Z,9.366003
2023-05-05T09:34:23.283Z,9.366035
2023-05-05T09:35:23.476Z,9.365954
2023-05-05T09:36:23.231Z,9.365961
2023-05-05T09:37:23.991Z,9.365999
2023-05-05T09:38:23.229Z,9.366070
2023-05-05T09:39:23.292Z,9.366136
2023-05-05T09:40:24.179Z,9.366084
2023-05-05T09:41:23.173Z,9.366029
2023-05-05T09:42:23.357Z,9.365924
2023-05-05T09:43:23.148Z,9.365821
2023-05-05T09:44:23.165Z,9.365936
2023-05-05T09:45:32.228Z,9.366091
2023-05-05T09:46:28.180Z,9.366097
2023-05-05T09:47:43.898Z,9.366048
2023-05-05T09:48:32.397Z,9.366096
2023-05-05T09:49:49.167Z,9.366126
2023-05-05T09:50:25.178Z,9.365922
2023-05-05T09:51:27.846Z,9.366121
2023-05-05T09:52:24.139Z,9.366127
2023-05-05T09:53:23.467Z,9.365973
2023-05-05T09:54:23.106Z,9.366006
2023-05-05T09:55:23.293Z,9.365999
2023-05-05T09:56:23.131Z,9.365995
2023-05-05T09:57:23.123Z,9.365953
2023-05-05T09:58:23.245Z,9.366013
2023-05-05T09:59:23.156Z,9.366080
2023-05-05T10:00:23.188Z,9.366002
2023-05-05T10:01:22.924Z,9.366044
2023-05-05T10:02:22.902Z,9.366040
2023-05-05T10:03:26.500Z,9.365891
2023-05-05T10:04:23.123Z,9.366002
2023-05-05T10:06:10.947Z,9.365871
2023-05-05T10:06:28.240Z,9.365565
2023-05-05T10:07:23.906Z,9.366087
2023-05-05T10:08:22.973Z,9.366159
2023-05-05T10:09:22.947Z,9.366136
2023-05-05T10:21:25.719Z,9.371315
2023-05-05T10:22:25.798Z,9.370273
2023-05-05T10:23:25.552Z,9.370273
2023-05-05T10:24:25.656Z,9.370273
2023-05-05T10:25:25.559Z,9.370052
2023-05-05T10:26:25.500Z,9.370052
2023-05-05T10:27:25.571Z,9.370052
2023-05-05T10:28:25.579Z,9.370052
2023-05-05T10:29:25.651Z,9.370052
2023-05-05T10:30:25.768Z,9.370052
2023-05-05T10:31:26.721Z,9.367432
2023-05-05T10:32:50.142Z,9.366228
2023-05-05T10:33:31.045Z,9.366228
2023-05-05T10:34:30.220Z,9.366040
2023-05-05T10:35:37.267Z,9.366040
2023-05-05T10:36:31.032Z,9.366040
2023-05-05T10:37:27.770Z,9.366040
2023-05-05T10:38:44.359Z,9.366040
2023-05-05T10:39:25.368Z,9.366040
2023-05-05T10:40:25.354Z,9.366040
2023-05-05T10:41:32.541Z,9.366040
2023-05-05T10:42:26.319Z,9.366040
2023-05-05T12:05:59.712Z,9.365953
2023-05-05T12:06:59.458Z,9.365985
2023-05-05T12:08:07.273Z,9.366004
2023-05-05T12:08:59.761Z,9.365991
2023-05-05T13:56:12.904Z,9.365959
2023-05-05T14:13:44.262Z,9.365951
2023-05-05T14:14:44.222Z,9.365972
2023-05-05T14:15:44.236Z,9.365902
2023-05-05T14:16:44.285Z,9.365901
2023-05-05T14:17:44.275Z,9.365819
2023-05-05T14:18:44.625Z,9.365820
2023-05-05T14:19:44.213Z,9.365979
2023-05-05T14:20:44.229Z,9.366086
2023-05-05T14:21:44.288Z,9.366055
2023-05-05T14:22:44.261Z,9.365995
2023-05-05T14:23:44.147Z,9.366039
2023-05-05T14:24:44.149Z,9.366019
2023-05-05T14:25:44.135Z,9.366003
2023-05-05T14:26:44.176Z,9.366012
2023-05-05T14:27:45.070Z,9.366070
2023-05-05T14:28:44.304Z,9.366132
2023-05-05T14:29:44.076Z,9.366133
2023-05-05T14:30:44.050Z,9.366053
2023-05-05T14:31:44.111Z,9.366158
2023-05-05T14:32:44.042Z,9.366115
2023-05-05T14:33:44.014Z,9.366192
2023-05-05T14:34:44.019Z,9.366027
2023-05-05T14:35:44.058Z,9.366092
2023-05-05T14:36:44.037Z,9.365952
2023-05-05T14:37:44.160Z,9.366108
2023-05-05T14:38:44.002Z,9.366213
2023-05-05T14:39:44.004Z,9.366201
2023-05-05T14:40:44.375Z,9.366206
2023-05-05T14:41:43.951Z,9.366070
2023-05-05T14:42:44.005Z,9.365911
2023-05-05T14:43:43.936Z,9.366002
2023-05-05T14:44:43.881Z,9.366085
2023-05-05T14:45:43.942Z,9.366048
2023-05-05T14:46:45.969Z,9.366092
2023-05-05T14:47:44.878Z,9.366220
2023-05-05T14:48:43.851Z,9.366175
2023-05-05T14:49:43.921Z,9.366175
2023-05-05T14:50:43.848Z,9.366019
2023-05-05T14:51:43.838Z,9.366078
2023-05-05T14:52:43.826Z,9.366094
2023-05-05T14:53:43.855Z,9.366059
2023-05-05T14:54:43.752Z,9.365981
2023-05-05T14:55:43.786Z,9.366094
2023-05-05T14:56:43.693Z,9.366019
2023-05-05T14:57:43.785Z,9.365966
2023-05-05T14:58:43.875Z,9.366000
2023-05-05T14:59:43.782Z,9.365955
2023-05-05T15:00:43.768Z,9.366104
2023-05-05T15:01:43.710Z,9.366080
2023-05-05T15:02:45.021Z,9.366052
2023-05-05T15:03:43.948Z,9.366036
2023-05-05T15:04:43.581Z,9.366025
2023-05-05T15:05:43.685Z,9.365948
2023-05-05T15:06:43.568Z,9.365864
2023-05-05T15:07:43.567Z,9.365813
2023-05-05T15:08:43.572Z,9.366039
2023-05-05T15:09:43.888Z,9.366070
2023-05-05T15:10:43.514Z,9.366086
2023-05-05T15:11:43.533Z,9.365964
2023-05-05T15:12:43.592Z,9.366053
2023-05-05T15:13:43.511Z,9.366179
2023-05-05T15:14:43.601Z,9.365970
2023-05-05T15:15:43.487Z,9.366050
2023-05-05T15:16:43.418Z,9.366073
2023-05-05T15:17:43.462Z,9.366119
2023-05-05T15:18:43.432Z,9.366068
2023-05-05T15:19:43.392Z,9.366165
2023-05-05T15:20:43.440Z,9.366451
2023-05-05T15:21:43.381Z,9.366066
2023-05-05T15:22:43.367Z,9.365958
2023-05-05T15:23:43.342Z,9.365993
2023-05-05T15:24:43.331Z,9.366040
2023-05-05T15:26:18.734Z,9.366091
2023-05-05T15:26:43.663Z,9.366016
2023-05-05T15:27:46.806Z,9.366099
2023-05-05T15:28:43.275Z,9.366160
2023-05-05T15:29:43.288Z,9.366013
2023-05-05T15:30:43.453Z,9.366037
2023-05-05T15:31:43.244Z,9.366313
2023-05-05T15:32:43.374Z,9.366038
2023-05-05T15:33:43.219Z,9.366070
2023-05-05T15:34:43.227Z,9.366003
2023-05-05T15:35:43.242Z,9.365919
2023-05-05T15:36:43.214Z,9.366069
2023-05-05T15:37:43.195Z,9.365830
2023-05-05T15:38:43.199Z,9.366114
2023-05-05T15:39:43.155Z,9.366302
2023-05-05T15:41:18.604Z,9.366180
2023-05-05T15:41:43.340Z,9.366031
2023-05-05T15:42:43.484Z,9.366005
2023-05-05T15:43:43.137Z,9.365975
2023-05-05T15:44:43.097Z,9.366027
2023-05-05T15:45:43.084Z,9.366035
2023-05-05T15:46:43.206Z,9.366004
2023-05-05T15:47:43.138Z,9.365939
2023-05-05T15:48:43.074Z,9.365974
2023-05-05T15:49:43.082Z,9.366007
2023-05-05T16:19:41.791Z,9.365979
2023-05-05T18:32:57.326Z,9.365882
2023-05-05T18:33:57.275Z,9.365790
2023-05-05T18:34:57.261Z,9.365836
2023-05-05T18:35:57.271Z,9.366004
2023-05-05T18:36:57.260Z,9.366121
2023-05-05T18:37:57.588Z,9.366178
2023-05-05T18:38:57.221Z,9.365808
2023-05-05T18:39:57.217Z,9.365893
2023-05-05T18:40:57.177Z,9.365951
2023-05-05T18:41:57.215Z,9.365911
2023-05-05T18:42:57.187Z,9.365956
2023-05-05T18:43:57.148Z,9.366225
2023-05-05T18:44:57.133Z,9.366241
2023-05-05T18:45:57.157Z,9.366603
2023-05-05T18:46:57.226Z,9.366318
2023-05-05T18:47:57.173Z,9.366080
2023-05-05T18:48:57.104Z,9.366147
2023-05-05T18:49:57.098Z,9.366147
2023-05-05T18:50:58.086Z,9.366490
2023-05-05T18:51:57.068Z,9.366341
2023-05-05T18:52:57.074Z,9.366284
2023-05-05T18:53:57.108Z,9.366433
2023-05-05T18:54:57.043Z,9.367042
2023-05-05T18:55:57.029Z,9.365940
2023-05-05T18:56:57.024Z,9.365960
2023-05-05T18:57:57.041Z,9.365895
2023-05-05T18:58:56.993Z,9.366012
2023-05-05T18:59:56.974Z,9.366105
2023-05-05T19:00:57.007Z,9.365996
2023-05-05T19:01:56.968Z,9.365740
2023-05-05T19:02:57.047Z,9.365975
2023-05-05T19:03:56.983Z,9.366087
2023-05-05T19:04:57.016Z,9.365809
2023-05-05T19:05:56.955Z,9.365924
2023-05-05T19:06:56.909Z,9.365977
2023-05-05T19:07:56.889Z,9.365931
2023-05-05T19:08:56.978Z,9.365901
2023-05-05T19:09:56.872Z,9.365920
2023-05-05T19:10:56.881Z,9.365916
2023-05-05T19:11:56.861Z,9.365916
2023-05-05T19:12:56.874Z,9.365862
2023-05-05T19:13:56.855Z,9.365863
2023-05-05T19:14:56.849Z,9.365883
2023-05-05T19:15:56.800Z,9.365900
2023-05-05T19:16:56.859Z,9.365851
2023-05-05T19:17:56.829Z,9.365826
2023-05-05T19:18:56.804Z,9.365642
2023-05-05T19:19:56.763Z,9.365565
2023-05-05T19:20:56.789Z,9.365565
2023-05-05T19:21:56.737Z,9.365565
2023-05-05T19:22:56.729Z,9.365565
